sensor_id;sensor_type;location;lat;lon;timestamp;temperature;humidity
46590;DHT22;32313;48.722;9.362;2022-11-20T00:01:23;3.90;99.90
46590;DHT22;32313;48.722;9.362;2022-11-20T00:03:51;3.80;99.90
46590;DHT22;32313;48.722;9.362;2022-11-20T00:06:18;3.70;99.90
46590;DHT22;32313;48.722;9.362;2022-11-20T00:08:44;3.70;99.90
46590;DHT22;32313;48.722;9.362;2022-11-20T00:11:19;3.60;99.90
46590;DHT22;32313;48.722;9.362;2022-11-20T00:13:47;3.50;99.90
46590;DHT22;32313;48.722;9.362;2022-11-20T00:16:14;3.40;99.90
46590;DHT22;32313;48.722;9.362;2022-11-20T00:18:40;3.40;99.90
46590;DHT22;32313;48.722;9.362;2022-11-20T00:21:11;3.30;99.90
46590;DHT22;32313;48.722;9.362;2022-11-20T00:23:37;3.30;99.90
46590;DHT22;32313;48.722;9.362;2022-11-20T00:26:05;3.20;99.90
46590;DHT22;32313;48.722;9.362;2022-11-20T00:28:30;3.20;99.90
46590;DHT22;32313;48.722;9.362;2022-11-20T00:33:28;3.10;99.90
46590;DHT22;32313;48.722;9.362;2022-11-20T00:35:59;3.10;99.90
46590;DHT22;32313;48.722;9.362;2022-11-20T00:38:25;3.10;99.90
46590;DHT22;32313;48.722;9.362;2022-11-20T00:40:58;3.10;99.90
46590;DHT22;32313;48.722;9.362;2022-11-20T00:43:24;3.10;99.90
46590;DHT22;32313;48.722;9.362;2022-11-20T00:45:50;3.10;99.90
46590;DHT22;32313;48.722;9.362;2022-11-20T00:48:16;3.10;99.90
46590;DHT22;32313;48.722;9.362;2022-11-20T00:50:42;3.10;99.90
46590;DHT22;32313;48.722;9.362;2022-11-20T00:53:07;3.20;99.90
46590;DHT22;32313;48.722;9.362;2022-11-20T00:55:33;3.30;99.90
46590;DHT22;32313;48.722;9.362;2022-11-20T00:57:58;3.30;99.90
46590;DHT22;32313;48.722;9.362;2022-11-20T01:00:24;3.40;99.90
46590;DHT22;32313;48.722;9.362;2022-11-20T01:02:50;3.40;99.90
46590;DHT22;32313;48.722;9.362;2022-11-20T01:05:15;3.50;99.90
46590;DHT22;32313;48.722;9.362;2022-11-20T01:07:41;3.50;99.90
46590;DHT22;32313;48.722;9.362;2022-11-20T01:10:07;3.60;99.90
46590;DHT22;32313;48.722;9.362;2022-11-20T01:12:33;3.60;99.90
46590;DHT22;32313;48.722;9.362;2022-11-20T01:14:58;3.70;99.90
46590;DHT22;32313;48.722;9.362;2022-11-20T01:17:24;3.70;99.90
46590;DHT22;32313;48.722;9.362;2022-11-20T01:19:49;3.80;99.90
46590;DHT22;32313;48.722;9.362;2022-11-20T01:22:16;3.80;99.90
46590;DHT22;32313;48.722;9.362;2022-11-20T01:24:41;3.80;99.90
46590;DHT22;32313;48.722;9.362;2022-11-20T01:27:08;3.80;99.90
46590;DHT22;32313;48.722;9.362;2022-11-20T01:29:34;3.80;99.90
46590;DHT22;32313;48.722;9.362;2022-11-20T01:32:00;3.80;99.90
46590;DHT22;32313;48.722;9.362;2022-11-20T01:34:25;3.80;99.90
46590;DHT22;32313;48.722;9.362;2022-11-20T01:36:52;3.80;99.90
46590;DHT22;32313;48.722;9.362;2022-11-20T01:39:21;3.80;99.90
46590;DHT22;32313;48.722;9.362;2022-11-20T01:41:48;3.90;99.90
46590;DHT22;32313;48.722;9.362;2022-11-20T01:47:09;3.90;99.90
46590;DHT22;32313;48.722;9.362;2022-11-20T01:50:22;3.90;99.90
46590;DHT22;32313;48.722;9.362;2022-11-20T01:52:59;3.90;99.90
46590;DHT22;32313;48.722;9.362;2022-11-20T01:55:33;3.90;99.90
46590;DHT22;32313;48.722;9.362;2022-11-20T01:58:01;3.90;99.90
46590;DHT22;32313;48.722;9.362;2022-11-20T02:00:27;3.90;99.90
46590;DHT22;32313;48.722;9.362;2022-11-20T02:03:06;3.90;99.90
46590;DHT22;32313;48.722;9.362;2022-11-20T02:05:36;3.80;99.90
46590;DHT22;32313;48.722;9.362;2022-11-20T02:08:04;3.80;99.90
46590;DHT22;32313;48.722;9.362;2022-11-20T02:10:31;3.70;99.90
46590;DHT22;32313;48.722;9.362;2022-11-20T02:12:57;3.60;99.90
46590;DHT22;32313;48.722;9.362;2022-11-20T02:15:42;3.50;99.90
46590;DHT22;32313;48.722;9.362;2022-11-20T02:18:09;3.40;99.90
46590;DHT22;32313;48.722;9.362;2022-11-20T02:20:35;3.30;99.90
46590;DHT22;32313;48.722;9.362;2022-11-20T02:23:08;3.30;99.90
46590;DHT22;32313;48.722;9.362;2022-11-20T02:25:35;3.30;99.90
46590;DHT22;32313;48.722;9.362;2022-11-20T02:28:02;3.30;99.90
46590;DHT22;32313;48.722;9.362;2022-11-20T02:30:28;3.40;99.90
46590;DHT22;32313;48.722;9.362;2022-11-20T02:32:54;3.40;99.90
46590;DHT22;32313;48.722;9.362;2022-11-20T02:37:47;3.40;99.90
46590;DHT22;32313;48.722;9.362;2022-11-20T02:40:13;3.50;99.90
46590;DHT22;32313;48.722;9.362;2022-11-20T02:42:39;3.50;99.90
46590;DHT22;32313;48.722;9.362;2022-11-20T02:45:06;3.50;99.90
46590;DHT22;32313;48.722;9.362;2022-11-20T02:47:32;3.50;99.90
46590;DHT22;32313;48.722;9.362;2022-11-20T02:49:58;3.50;99.90
46590;DHT22;32313;48.722;9.362;2022-11-20T02:52:24;3.50;99.90
46590;DHT22;32313;48.722;9.362;2022-11-20T02:54:50;3.50;99.90
46590;DHT22;32313;48.722;9.362;2022-11-20T02:57:16;3.50;99.90
46590;DHT22;32313;48.722;9.362;2022-11-20T02:59:41;3.40;99.90
46590;DHT22;32313;48.722;9.362;2022-11-20T03:02:07;3.40;99.90
46590;DHT22;32313;48.722;9.362;2022-11-20T03:04:33;3.40;99.90
46590;DHT22;32313;48.722;9.362;2022-11-20T03:06:58;3.40;99.90
46590;DHT22;32313;48.722;9.362;2022-11-20T03:09:24;3.40;99.90
46590;DHT22;32313;48.722;9.362;2022-11-20T03:11:50;3.40;99.90
46590;DHT22;32313;48.722;9.362;2022-11-20T03:14:15;3.40;99.90
46590;DHT22;32313;48.722;9.362;2022-11-20T03:16:41;3.40;99.90
46590;DHT22;32313;48.722;9.362;2022-11-20T03:19:07;3.40;99.90
46590;DHT22;32313;48.722;9.362;2022-11-20T03:21:33;3.50;99.90
46590;DHT22;32313;48.722;9.362;2022-11-20T03:24:00;3.50;99.90
46590;DHT22;32313;48.722;9.362;2022-11-20T03:26:27;3.50;99.90
46590;DHT22;32313;48.722;9.362;2022-11-20T03:28:54;3.60;99.90
46590;DHT22;32313;48.722;9.362;2022-11-20T03:31:23;3.60;99.90
46590;DHT22;32313;48.722;9.362;2022-11-20T03:33:49;3.70;99.90
46590;DHT22;32313;48.722;9.362;2022-11-20T03:36:17;3.70;99.90
46590;DHT22;32313;48.722;9.362;2022-11-20T03:38:43;3.80;99.90
46590;DHT22;32313;48.722;9.362;2022-11-20T03:41:11;3.80;99.90
46590;DHT22;32313;48.722;9.362;2022-11-20T03:43:37;3.80;99.90
46590;DHT22;32313;48.722;9.362;2022-11-20T03:46:03;3.90;99.90
46590;DHT22;32313;48.722;9.362;2022-11-20T03:48:29;3.90;99.90
46590;DHT22;32313;48.722;9.362;2022-11-20T03:51:13;3.90;99.90
46590;DHT22;32313;48.722;9.362;2022-11-20T03:53:40;3.90;99.90
46590;DHT22;32313;48.722;9.362;2022-11-20T03:56:07;4.00;99.90
46590;DHT22;32313;48.722;9.362;2022-11-20T03:58:34;3.90;99.90
46590;DHT22;32313;48.722;9.362;2022-11-20T04:01:11;3.90;99.90
46590;DHT22;32313;48.722;9.362;2022-11-20T04:03:38;3.70;99.90
46590;DHT22;32313;48.722;9.362;2022-11-20T04:06:12;3.60;99.90
46590;DHT22;32313;48.722;9.362;2022-11-20T04:08:39;3.50;99.90
46590;DHT22;32313;48.722;9.362;2022-11-20T04:11:28;3.50;99.90
46590;DHT22;32313;48.722;9.362;2022-11-20T04:13:59;3.50;99.90
46590;DHT22;32313;48.722;9.362;2022-11-20T04:16:28;3.60;99.90
46590;DHT22;32313;48.722;9.362;2022-11-20T04:18:55;3.60;99.90
46590;DHT22;32313;48.722;9.362;2022-11-20T04:21:22;3.70;99.90
46590;DHT22;32313;48.722;9.362;2022-11-20T04:23:49;3.80;99.90
46590;DHT22;32313;48.722;9.362;2022-11-20T04:26:15;3.90;99.90
46590;DHT22;32313;48.722;9.362;2022-11-20T04:28:41;4.00;99.90
46590;DHT22;32313;48.722;9.362;2022-11-20T04:31:14;4.10;99.90
46590;DHT22;32313;48.722;9.362;2022-11-20T04:33:40;4.10;99.90
46590;DHT22;32313;48.722;9.362;2022-11-20T04:36:17;4.10;99.90
46590;DHT22;32313;48.722;9.362;2022-11-20T04:38:43;4.20;99.90
46590;DHT22;32313;48.722;9.362;2022-11-20T04:41:20;4.30;99.90
46590;DHT22;32313;48.722;9.362;2022-11-20T04:43:48;4.40;99.90
46590;DHT22;32313;48.722;9.362;2022-11-20T04:46:14;4.40;99.90
46590;DHT22;32313;48.722;9.362;2022-11-20T04:48:40;4.40;99.90
46590;DHT22;32313;48.722;9.362;2022-11-20T04:51:06;4.40;99.90
46590;DHT22;32313;48.722;9.362;2022-11-20T04:53:31;4.40;99.90
46590;DHT22;32313;48.722;9.362;2022-11-20T04:56:03;4.40;99.90
46590;DHT22;32313;48.722;9.362;2022-11-20T04:58:29;4.40;99.90
46590;DHT22;32313;48.722;9.362;2022-11-20T05:01:19;4.30;99.90
46590;DHT22;32313;48.722;9.362;2022-11-20T05:03:46;4.20;99.90
46590;DHT22;32313;48.722;9.362;2022-11-20T05:06:16;4.20;99.90
46590;DHT22;32313;48.722;9.362;2022-11-20T05:08:42;4.10;99.90
46590;DHT22;32313;48.722;9.362;2022-11-20T05:11:13;4.10;99.90
46590;DHT22;32313;48.722;9.362;2022-11-20T05:13:40;4.00;99.90
46590;DHT22;32313;48.722;9.362;2022-11-20T05:16:10;4.00;99.90
46590;DHT22;32313;48.722;9.362;2022-11-20T05:18:37;4.10;99.90
46590;DHT22;32313;48.722;9.362;2022-11-20T05:21:04;4.20;99.90
46590;DHT22;32313;48.722;9.362;2022-11-20T05:23:31;4.20;99.90
46590;DHT22;32313;48.722;9.362;2022-11-20T05:25:57;4.20;99.90
46590;DHT22;32313;48.722;9.362;2022-11-20T05:28:24;4.30;99.90
46590;DHT22;32313;48.722;9.362;2022-11-20T05:30:50;4.40;99.90
46590;DHT22;32313;48.722;9.362;2022-11-20T05:33:16;4.40;99.90
46590;DHT22;32313;48.722;9.362;2022-11-20T05:35:41;4.50;99.90
46590;DHT22;32313;48.722;9.362;2022-11-20T05:38:07;4.60;99.90
46590;DHT22;32313;48.722;9.362;2022-11-20T05:40:33;4.60;99.90
46590;DHT22;32313;48.722;9.362;2022-11-20T05:42:59;4.70;99.90
46590;DHT22;32313;48.722;9.362;2022-11-20T05:45:25;4.70;99.90
46590;DHT22;32313;48.722;9.362;2022-11-20T05:47:51;4.70;99.90
46590;DHT22;32313;48.722;9.362;2022-11-20T05:50:16;4.80;99.90
46590;DHT22;32313;48.722;9.362;2022-11-20T05:52:42;4.80;99.90
46590;DHT22;32313;48.722;9.362;2022-11-20T05:55:08;4.80;99.90
46590;DHT22;32313;48.722;9.362;2022-11-20T05:57:34;4.90;99.90
46590;DHT22;32313;48.722;9.362;2022-11-20T06:00:00;4.90;99.90
46590;DHT22;32313;48.722;9.362;2022-11-20T06:02:26;4.90;99.90
46590;DHT22;32313;48.722;9.362;2022-11-20T06:04:51;4.90;99.90
46590;DHT22;32313;48.722;9.362;2022-11-20T06:07:17;4.90;99.90
46590;DHT22;32313;48.722;9.362;2022-11-20T06:09:42;5.00;99.90
46590;DHT22;32313;48.722;9.362;2022-11-20T06:12:08;5.00;99.90
46590;DHT22;32313;48.722;9.362;2022-11-20T06:14:34;5.00;99.90
46590;DHT22;32313;48.722;9.362;2022-11-20T06:16:59;5.00;99.90
46590;DHT22;32313;48.722;9.362;2022-11-20T06:19:25;5.00;99.90
46590;DHT22;32313;48.722;9.362;2022-11-20T06:21:51;5.00;99.90
46590;DHT22;32313;48.722;9.362;2022-11-20T06:24:17;5.00;99.90
46590;DHT22;32313;48.722;9.362;2022-11-20T06:26:43;5.00;99.90
46590;DHT22;32313;48.722;9.362;2022-11-20T06:29:10;5.00;99.90
46590;DHT22;32313;48.722;9.362;2022-11-20T06:31:35;5.00;99.90
46590;DHT22;32313;48.722;9.362;2022-11-20T06:34:06;5.00;99.90
46590;DHT22;32313;48.722;9.362;2022-11-20T06:36:32;4.90;99.90
46590;DHT22;32313;48.722;9.362;2022-11-20T06:38:58;4.90;99.90
46590;DHT22;32313;48.722;9.362;2022-11-20T06:41:24;4.90;99.90
46590;DHT22;32313;48.722;9.362;2022-11-20T06:43:51;5.00;99.90
46590;DHT22;32313;48.722;9.362;2022-11-20T06:46:18;5.00;99.90
46590;DHT22;32313;48.722;9.362;2022-11-20T06:48:45;5.00;99.90
46590;DHT22;32313;48.722;9.362;2022-11-20T06:51:11;5.00;99.90
46590;DHT22;32313;48.722;9.362;2022-11-20T06:53:37;5.10;99.90
46590;DHT22;32313;48.722;9.362;2022-11-20T06:56:03;5.10;99.90
46590;DHT22;32313;48.722;9.362;2022-11-20T06:58:31;5.10;99.90
46590;DHT22;32313;48.722;9.362;2022-11-20T07:01:01;5.10;99.90
46590;DHT22;32313;48.722;9.362;2022-11-20T07:03:27;5.10;99.90
46590;DHT22;32313;48.722;9.362;2022-11-20T07:05:57;5.10;99.90
46590;DHT22;32313;48.722;9.362;2022-11-20T07:08:24;5.10;99.90
46590;DHT22;32313;48.722;9.362;2022-11-20T07:10:50;5.10;99.90
46590;DHT22;32313;48.722;9.362;2022-11-20T07:13:16;5.10;99.90
46590;DHT22;32313;48.722;9.362;2022-11-20T07:15:41;5.10;99.90
46590;DHT22;32313;48.722;9.362;2022-11-20T07:18:10;5.00;99.90
46590;DHT22;32313;48.722;9.362;2022-11-20T07:20:36;5.00;99.90
46590;DHT22;32313;48.722;9.362;2022-11-20T07:23:02;4.90;99.90
46590;DHT22;32313;48.722;9.362;2022-11-20T07:25:28;5.00;99.90
46590;DHT22;32313;48.722;9.362;2022-11-20T07:27:58;5.00;99.90
46590;DHT22;32313;48.722;9.362;2022-11-20T07:30:24;5.00;99.90
46590;DHT22;32313;48.722;9.362;2022-11-20T07:32:54;5.10;99.90
46590;DHT22;32313;48.722;9.362;2022-11-20T07:35:21;5.10;99.90
46590;DHT22;32313;48.722;9.362;2022-11-20T07:37:47;5.10;99.90
46590;DHT22;32313;48.722;9.362;2022-11-20T07:40:14;5.20;99.90
46590;DHT22;32313;48.722;9.362;2022-11-20T07:42:51;5.20;99.90
46590;DHT22;32313;48.722;9.362;2022-11-20T07:45:18;5.20;99.90
46590;DHT22;32313;48.722;9.362;2022-11-20T07:47:44;5.30;99.90
46590;DHT22;32313;48.722;9.362;2022-11-20T07:50:10;5.40;99.90
46590;DHT22;32313;48.722;9.362;2022-11-20T07:52:36;5.40;99.90
46590;DHT22;32313;48.722;9.362;2022-11-20T07:55:02;5.40;99.90
46590;DHT22;32313;48.722;9.362;2022-11-20T07:57:28;5.40;99.90
46590;DHT22;32313;48.722;9.362;2022-11-20T07:59:53;5.30;99.90
46590;DHT22;32313;48.722;9.362;2022-11-20T08:02:19;5.50;99.90
46590;DHT22;32313;48.722;9.362;2022-11-20T08:04:44;5.60;99.90
46590;DHT22;32313;48.722;9.362;2022-11-20T08:07:10;5.70;99.90
46590;DHT22;32313;48.722;9.362;2022-11-20T08:09:36;5.80;99.90
46590;DHT22;32313;48.722;9.362;2022-11-20T08:12:01;5.90;99.90
46590;DHT22;32313;48.722;9.362;2022-11-20T08:14:45;6.00;99.90
46590;DHT22;32313;48.722;9.362;2022-11-20T08:17:11;6.00;99.90
46590;DHT22;32313;48.722;9.362;2022-11-20T08:19:37;6.00;99.90
46590;DHT22;32313;48.722;9.362;2022-11-20T08:22:03;5.90;99.90
46590;DHT22;32313;48.722;9.362;2022-11-20T08:24:29;5.90;99.90
46590;DHT22;32313;48.722;9.362;2022-11-20T08:26:57;5.90;99.90
46590;DHT22;32313;48.722;9.362;2022-11-20T08:29:24;5.90;99.90
46590;DHT22;32313;48.722;9.362;2022-11-20T08:31:49;5.90;99.90
46590;DHT22;32313;48.722;9.362;2022-11-20T08:34:15;6.00;99.90
46590;DHT22;32313;48.722;9.362;2022-11-20T08:36:41;6.10;99.90
46590;DHT22;32313;48.722;9.362;2022-11-20T08:39:06;6.10;99.90
46590;DHT22;32313;48.722;9.362;2022-11-20T08:41:32;6.20;99.90
46590;DHT22;32313;48.722;9.362;2022-11-20T08:44:00;6.20;99.90
46590;DHT22;32313;48.722;9.362;2022-11-20T08:46:32;6.20;99.90
46590;DHT22;32313;48.722;9.362;2022-11-20T08:49:05;6.20;99.90
46590;DHT22;32313;48.722;9.362;2022-11-20T08:51:31;6.20;99.90
46590;DHT22;32313;48.722;9.362;2022-11-20T08:53:57;6.20;99.90
46590;DHT22;32313;48.722;9.362;2022-11-20T08:56:23;6.20;99.90
46590;DHT22;32313;48.722;9.362;2022-11-20T08:58:51;6.20;99.90
46590;DHT22;32313;48.722;9.362;2022-11-20T09:01:18;6.20;99.90
46590;DHT22;32313;48.722;9.362;2022-11-20T09:03:44;6.10;99.90
46590;DHT22;32313;48.722;9.362;2022-11-20T09:06:09;6.20;99.90
46590;DHT22;32313;48.722;9.362;2022-11-20T09:08:35;6.20;99.90
46590;DHT22;32313;48.722;9.362;2022-11-20T09:11:04;6.20;99.90
46590;DHT22;32313;48.722;9.362;2022-11-20T09:13:31;6.30;99.90
46590;DHT22;32313;48.722;9.362;2022-11-20T09:15:59;6.30;99.90
46590;DHT22;32313;48.722;9.362;2022-11-20T09:18:26;6.50;99.90
46590;DHT22;32313;48.722;9.362;2022-11-20T09:20:52;6.60;99.90
46590;DHT22;32313;48.722;9.362;2022-11-20T09:23:21;6.70;99.90
46590;DHT22;32313;48.722;9.362;2022-11-20T09:25:46;6.70;99.90
46590;DHT22;32313;48.722;9.362;2022-11-20T09:28:12;6.70;99.90
46590;DHT22;32313;48.722;9.362;2022-11-20T09:30:38;6.70;99.90
46590;DHT22;32313;48.722;9.362;2022-11-20T09:33:05;6.70;99.90
46590;DHT22;32313;48.722;9.362;2022-11-20T09:35:32;6.70;99.90
46590;DHT22;32313;48.722;9.362;2022-11-20T09:37:57;6.70;99.90
46590;DHT22;32313;48.722;9.362;2022-11-20T09:40:26;6.60;99.90
46590;DHT22;32313;48.722;9.362;2022-11-20T09:43:16;6.70;99.90
46590;DHT22;32313;48.722;9.362;2022-11-20T09:56:42;6.80;99.90
46590;DHT22;32313;48.722;9.362;2022-11-20T09:59:23;6.80;99.90
46590;DHT22;32313;48.722;9.362;2022-11-20T10:01:52;6.80;99.90
46590;DHT22;32313;48.722;9.362;2022-11-20T10:04:20;6.80;99.90
46590;DHT22;32313;48.722;9.362;2022-11-20T10:07:13;6.80;99.90
46590;DHT22;32313;48.722;9.362;2022-11-20T10:09:47;6.90;99.90
46590;DHT22;32313;48.722;9.362;2022-11-20T10:12:23;6.90;99.90
46590;DHT22;32313;48.722;9.362;2022-11-20T10:25:16;7.10;99.90
46590;DHT22;32313;48.722;9.362;2022-11-20T10:30:21;7.10;99.90
46590;DHT22;32313;48.722;9.362;2022-11-20T10:33:05;7.10;99.90
46590;DHT22;32313;48.722;9.362;2022-11-20T10:35:39;7.10;99.90
46590;DHT22;32313;48.722;9.362;2022-11-20T10:38:54;7.00;99.90
46590;DHT22;32313;48.722;9.362;2022-11-20T10:41:01;7.00;99.90
46590;DHT22;32313;48.722;9.362;2022-11-20T10:43:46;7.00;99.90
46590;DHT22;32313;48.722;9.362;2022-11-20T10:46:19;7.00;99.90
46590;DHT22;32313;48.722;9.362;2022-11-20T10:48:48;6.90;99.90
46590;DHT22;32313;48.722;9.362;2022-11-20T10:51:31;6.90;99.90
46590;DHT22;32313;48.722;9.362;2022-11-20T10:54:25;6.80;99.90
46590;DHT22;32313;48.722;9.362;2022-11-20T11:00:07;6.60;99.90
46590;DHT22;32313;48.722;9.362;2022-11-20T11:02:38;6.50;99.90
46590;DHT22;32313;48.722;9.362;2022-11-20T11:05:37;6.40;99.90
46590;DHT22;32313;48.722;9.362;2022-11-20T11:08:10;6.40;99.90
46590;DHT22;32313;48.722;9.362;2022-11-20T11:10:53;6.40;99.90
46590;DHT22;32313;48.722;9.362;2022-11-20T11:13:25;6.30;99.90
46590;DHT22;32313;48.722;9.362;2022-11-20T11:15:51;6.30;99.90
46590;DHT22;32313;48.722;9.362;2022-11-20T11:18:27;6.30;99.90
46590;DHT22;32313;48.722;9.362;2022-11-20T11:20:54;6.30;99.90
46590;DHT22;32313;48.722;9.362;2022-11-20T11:23:42;6.30;99.90
46590;DHT22;32313;48.722;9.362;2022-11-20T11:26:24;6.30;99.90
46590;DHT22;32313;48.722;9.362;2022-11-20T11:31:28;6.40;99.90
46590;DHT22;32313;48.722;9.362;2022-11-20T11:34:14;6.40;99.90
46590;DHT22;32313;48.722;9.362;2022-11-20T11:36:40;6.50;99.90
46590;DHT22;32313;48.722;9.362;2022-11-20T11:39:13;6.60;99.90
46590;DHT22;32313;48.722;9.362;2022-11-20T11:41:40;6.70;99.90
46590;DHT22;32313;48.722;9.362;2022-11-20T11:44:21;6.90;99.90
46590;DHT22;32313;48.722;9.362;2022-11-20T11:47:37;7.10;99.90
46590;DHT22;32313;48.722;9.362;2022-11-20T11:58:50;7.70;99.90
46590;DHT22;32313;48.722;9.362;2022-11-20T12:04:20;8.10;99.90
46590;DHT22;32313;48.722;9.362;2022-11-20T12:06:53;8.30;99.90
46590;DHT22;32313;48.722;9.362;2022-11-20T12:09:25;8.50;99.90
46590;DHT22;32313;48.722;9.362;2022-11-20T12:12:02;9.10;99.90
46590;DHT22;32313;48.722;9.362;2022-11-20T12:14:43;10.40;99.90
46590;DHT22;32313;48.722;9.362;2022-11-20T12:17:12;11.20;99.90
46590;DHT22;32313;48.722;9.362;2022-11-20T12:19:39;10.50;99.90
46590;DHT22;32313;48.722;9.362;2022-11-20T12:22:29;9.80;99.90
46590;DHT22;32313;48.722;9.362;2022-11-20T12:25:30;9.30;99.90
46590;DHT22;32313;48.722;9.362;2022-11-20T12:34:19;8.90;99.90
46590;DHT22;32313;48.722;9.362;2022-11-20T12:39:30;8.90;99.90
46590;DHT22;32313;48.722;9.362;2022-11-20T13:01:39;8.60;99.90
46590;DHT22;32313;48.722;9.362;2022-11-20T13:06:46;8.60;99.90
46590;DHT22;32313;48.722;9.362;2022-11-20T13:09:15;8.70;99.90
46590;DHT22;32313;48.722;9.362;2022-11-20T13:12:02;9.40;99.90
46590;DHT22;32313;48.722;9.362;2022-11-20T13:14:35;10.90;99.90
46590;DHT22;32313;48.722;9.362;2022-11-20T13:17:11;12.00;99.90
46590;DHT22;32313;48.722;9.362;2022-11-20T13:19:39;12.60;99.90
46590;DHT22;32313;48.722;9.362;2022-11-20T13:22:04;12.60;99.90
46590;DHT22;32313;48.722;9.362;2022-11-20T13:24:31;12.20;99.90
46590;DHT22;32313;48.722;9.362;2022-11-20T13:29:42;11.20;99.90
46590;DHT22;32313;48.722;9.362;2022-11-20T13:34:37;10.30;99.90
46590;DHT22;32313;48.722;9.362;2022-11-20T13:37:03;10.00;99.90
46590;DHT22;32313;48.722;9.362;2022-11-20T13:39:35;10.10;99.90
46590;DHT22;32313;48.722;9.362;2022-11-20T13:42:26;11.10;99.90
46590;DHT22;32313;48.722;9.362;2022-11-20T13:45:01;11.30;99.90
46590;DHT22;32313;48.722;9.362;2022-11-20T13:47:28;10.90;99.90
46590;DHT22;32313;48.722;9.362;2022-11-20T13:49:56;11.00;99.90
46590;DHT22;32313;48.722;9.362;2022-11-20T13:53:02;11.70;99.90
46590;DHT22;32313;48.722;9.362;2022-11-20T13:55:40;12.40;99.90
46590;DHT22;32313;48.722;9.362;2022-11-20T14:03:57;9.90;99.90
46590;DHT22;32313;48.722;9.362;2022-11-20T14:06:31;9.70;99.90
46590;DHT22;32313;48.722;9.362;2022-11-20T14:08:58;9.70;99.90
46590;DHT22;32313;48.722;9.362;2022-11-20T14:11:29;10.40;99.90
46590;DHT22;32313;48.722;9.362;2022-11-20T14:16:28;12.00;99.90
46590;DHT22;32313;48.722;9.362;2022-11-20T14:18:55;12.50;99.90
46590;DHT22;32313;48.722;9.362;2022-11-20T14:21:23;12.60;99.90
46590;DHT22;32313;48.722;9.362;2022-11-20T14:23:49;12.50;99.90
46590;DHT22;32313;48.722;9.362;2022-11-20T14:26:18;12.10;99.90
46590;DHT22;32313;48.722;9.362;2022-11-20T14:28:49;11.30;99.90
46590;DHT22;32313;48.722;9.362;2022-11-20T14:31:23;10.30;99.90
46590;DHT22;32313;48.722;9.362;2022-11-20T14:33:51;9.50;99.90
46590;DHT22;32313;48.722;9.362;2022-11-20T14:36:22;9.00;99.90
46590;DHT22;32313;48.722;9.362;2022-11-20T14:38:49;8.50;99.90
46590;DHT22;32313;48.722;9.362;2022-11-20T14:41:23;8.20;99.90
46590;DHT22;32313;48.722;9.362;2022-11-20T14:43:59;7.90;99.90
46590;DHT22;32313;48.722;9.362;2022-11-20T14:46:25;7.80;99.90
46590;DHT22;32313;48.722;9.362;2022-11-20T14:48:55;7.60;99.90
46590;DHT22;32313;48.722;9.362;2022-11-20T14:51:31;7.50;99.90
46590;DHT22;32313;48.722;9.362;2022-11-20T14:54:09;7.50;99.90
46590;DHT22;32313;48.722;9.362;2022-11-20T14:56:35;7.40;99.90
46590;DHT22;32313;48.722;9.362;2022-11-20T14:59:01;7.30;99.90
46590;DHT22;32313;48.722;9.362;2022-11-20T15:01:28;7.20;99.90
46590;DHT22;32313;48.722;9.362;2022-11-20T15:04:00;7.10;99.90
46590;DHT22;32313;48.722;9.362;2022-11-20T15:06:27;7.00;99.90
46590;DHT22;32313;48.722;9.362;2022-11-20T15:08:53;6.90;99.90
46590;DHT22;32313;48.722;9.362;2022-11-20T15:11:23;6.70;99.90
46590;DHT22;32313;48.722;9.362;2022-11-20T15:13:51;6.60;99.90
46590;DHT22;32313;48.722;9.362;2022-11-20T15:16:21;6.50;99.90
46590;DHT22;32313;48.722;9.362;2022-11-20T15:18:47;6.40;99.90
46590;DHT22;32313;48.722;9.362;2022-11-20T15:21:18;6.40;99.90
46590;DHT22;32313;48.722;9.362;2022-11-20T15:23:44;6.40;99.90
46590;DHT22;32313;48.722;9.362;2022-11-20T15:26:11;6.50;99.90
46590;DHT22;32313;48.722;9.362;2022-11-20T15:28:45;6.50;99.90
46590;DHT22;32313;48.722;9.362;2022-11-20T15:31:14;6.60;99.90
46590;DHT22;32313;48.722;9.362;2022-11-20T15:33:41;6.60;99.90
46590;DHT22;32313;48.722;9.362;2022-11-20T15:36:08;6.60;99.90
46590;DHT22;32313;48.722;9.362;2022-11-20T15:38:34;6.40;99.90
46590;DHT22;32313;48.722;9.362;2022-11-20T15:40:59;6.30;99.90
46590;DHT22;32313;48.722;9.362;2022-11-20T15:43:25;6.10;99.90
46590;DHT22;32313;48.722;9.362;2022-11-20T15:45:59;6.00;99.90
46590;DHT22;32313;48.722;9.362;2022-11-20T15:48:36;5.80;99.90
46590;DHT22;32313;48.722;9.362;2022-11-20T15:53:38;5.60;99.90
46590;DHT22;32313;48.722;9.362;2022-11-20T15:56:05;5.50;99.90
46590;DHT22;32313;48.722;9.362;2022-11-20T15:58:31;5.40;99.90
46590;DHT22;32313;48.722;9.362;2022-11-20T16:00:57;5.30;99.90
46590;DHT22;32313;48.722;9.362;2022-11-20T16:03:24;5.20;99.90
46590;DHT22;32313;48.722;9.362;2022-11-20T16:05:49;5.10;99.90
46590;DHT22;32313;48.722;9.362;2022-11-20T16:08:15;5.00;99.90
46590;DHT22;32313;48.722;9.362;2022-11-20T16:10:41;4.80;99.90
46590;DHT22;32313;48.722;9.362;2022-11-20T16:13:15;4.80;99.90
46590;DHT22;32313;48.722;9.362;2022-11-20T16:16:04;4.70;99.90
46590;DHT22;32313;48.722;9.362;2022-11-20T16:18:30;4.70;99.90
46590;DHT22;32313;48.722;9.362;2022-11-20T16:20:56;4.70;99.90
46590;DHT22;32313;48.722;9.362;2022-11-20T16:23:23;4.80;99.90
46590;DHT22;32313;48.722;9.362;2022-11-20T16:25:49;4.90;99.90
46590;DHT22;32313;48.722;9.362;2022-11-20T16:28:16;4.90;99.90
46590;DHT22;32313;48.722;9.362;2022-11-20T16:30:42;4.90;99.90
46590;DHT22;32313;48.722;9.362;2022-11-20T16:33:12;4.90;99.90
46590;DHT22;32313;48.722;9.362;2022-11-20T16:35:38;4.90;99.90
46590;DHT22;32313;48.722;9.362;2022-11-20T16:38:04;4.90;99.90
46590;DHT22;32313;48.722;9.362;2022-11-20T16:40:29;4.90;99.90
46590;DHT22;32313;48.722;9.362;2022-11-20T16:42:55;4.90;99.90
46590;DHT22;32313;48.722;9.362;2022-11-20T16:45:22;4.90;99.90
46590;DHT22;32313;48.722;9.362;2022-11-20T16:47:48;5.00;99.90
46590;DHT22;32313;48.722;9.362;2022-11-20T16:50:14;5.00;99.90
46590;DHT22;32313;48.722;9.362;2022-11-20T16:52:40;5.00;99.90
46590;DHT22;32313;48.722;9.362;2022-11-20T16:55:06;5.00;99.90
46590;DHT22;32313;48.722;9.362;2022-11-20T16:57:32;4.90;99.90
46590;DHT22;32313;48.722;9.362;2022-11-20T17:00:00;4.90;99.90
46590;DHT22;32313;48.722;9.362;2022-11-20T17:02:26;4.80;99.90
46590;DHT22;32313;48.722;9.362;2022-11-20T17:04:52;4.80;99.90
46590;DHT22;32313;48.722;9.362;2022-11-20T17:07:18;4.70;99.90
46590;DHT22;32313;48.722;9.362;2022-11-20T17:09:44;4.70;99.90
46590;DHT22;32313;48.722;9.362;2022-11-20T17:12:10;4.70;99.90
46590;DHT22;32313;48.722;9.362;2022-11-20T17:14:35;4.60;99.90
46590;DHT22;32313;48.722;9.362;2022-11-20T17:17:01;4.60;99.90
46590;DHT22;32313;48.722;9.362;2022-11-20T17:19:27;4.60;99.90
46590;DHT22;32313;48.722;9.362;2022-11-20T17:21:52;4.50;99.90
46590;DHT22;32313;48.722;9.362;2022-11-20T17:24:18;4.50;99.90
46590;DHT22;32313;48.722;9.362;2022-11-20T17:26:44;4.50;99.90
46590;DHT22;32313;48.722;9.362;2022-11-20T17:29:13;4.40;99.90
46590;DHT22;32313;48.722;9.362;2022-11-20T17:31:39;4.40;99.90
46590;DHT22;32313;48.722;9.362;2022-11-20T17:34:06;4.40;99.90